createdAt,value
2018-02-24T00:00:34.691Z,24.03
2018-02-24T00:03:02.109Z,24.40
2018-02-24T00:05:29.524Z,25.47
2018-02-24T00:07:56.944Z,25.00
2018-02-24T00:10:24.358Z,23.40
2018-02-24T00:12:51.784Z,22.97
2018-02-24T00:15:19.189Z,24.10
2018-02-24T00:17:46.615Z,19.50
2018-02-24T00:20:14.019Z,21.90
2018-02-24T00:22:44.137Z,22.85
2018-02-24T00:25:11.549Z,19.03
2018-02-24T00:27:38.969Z,26.57
2018-02-24T00:30:06.382Z,25.00
2018-02-24T00:32:33.805Z,22.00
2018-02-24T00:35:01.217Z,20.73
2018-02-24T00:37:28.639Z,26.83
2018-02-24T00:39:56.044Z,24.13
2018-02-24T00:42:23.477Z,23.42
2018-02-24T00:44:50.889Z,26.20
2018-02-24T00:47:18.300Z,26.48
2018-02-24T00:49:45.724Z,25.10
2018-02-24T00:52:14.040Z,23.45
2018-02-24T00:54:41.460Z,22.80
2018-02-24T00:57:08.861Z,22.00
2018-02-24T00:59:36.288Z,22.60
2018-02-24T01:02:03.700Z,23.63
2018-02-24T01:04:31.121Z,19.07
2018-02-24T01:06:58.553Z,29.17
2018-02-24T01:09:25.976Z,25.40
2018-02-24T01:11:53.375Z,17.20
2018-02-24T01:14:20.798Z,28.25
2018-02-24T01:16:48.209Z,22.50
2018-02-24T01:19:15.632Z,20.77
2018-02-24T01:21:43.041Z,20.23
2018-02-24T01:24:10.461Z,25.97
2018-02-24T01:26:37.885Z,25.37
2018-02-24T01:29:05.305Z,25.77
2018-02-24T01:31:32.717Z,23.10
2018-02-24T01:34:00.144Z,26.25
2018-02-24T01:36:27.554Z,20.97
2018-02-24T01:38:54.975Z,24.20
2018-02-24T01:41:22.397Z,25.20
2018-02-24T01:43:49.819Z,24.67
2018-02-24T01:46:17.229Z,22.30
2018-02-24T01:48:44.649Z,26.53
2018-02-24T01:51:12.064Z,23.73
2018-02-24T01:53:39.485Z,28.57
2018-02-24T01:56:06.906Z,21.30
2018-02-24T01:58:34.325Z,19.75
2018-02-24T02:01:01.738Z,16.70
2018-02-24T02:03:29.155Z,23.40
2018-02-24T02:05:56.564Z,25.27
2018-02-24T02:08:23.979Z,25.40
2018-02-24T02:10:51.392Z,25.00
2018-02-24T02:13:18.808Z,25.50
2018-02-24T02:15:46.228Z,18.73
2018-02-24T02:18:13.628Z,21.77
2018-02-24T02:20:41.053Z,27.07
2018-02-24T02:23:08.461Z,28.83
2018-02-24T02:25:35.889Z,23.60
2018-02-24T02:28:03.292Z,22.47
2018-02-24T02:30:30.705Z,24.57
2018-02-24T02:32:58.121Z,20.77
2018-02-24T02:35:25.545Z,27.20
2018-02-24T02:37:52.945Z,25.97
2018-02-24T02:40:20.372Z,29.80
2018-02-24T02:42:47.789Z,23.87
2018-02-24T02:45:15.219Z,22.50
2018-02-24T02:47:42.640Z,24.42
2018-02-24T02:50:10.055Z,25.90
2018-02-24T02:52:37.468Z,24.47
2018-02-24T02:55:04.889Z,20.90
2018-02-24T02:57:32.302Z,21.52
2018-02-24T02:59:59.725Z,25.37
2018-02-24T03:02:27.130Z,30.50
2018-02-24T03:04:54.551Z,27.83
2018-02-24T03:07:21.969Z,20.63
2018-02-24T03:09:49.381Z,29.70
2018-02-24T03:12:16.789Z,29.73
2018-02-24T03:14:44.208Z,21.05
2018-02-24T03:17:11.632Z,24.33
2018-02-24T03:19:39.049Z,27.70
2018-02-24T03:22:06.460Z,26.98
2018-02-24T03:24:33.887Z,29.27
2018-02-24T03:27:01.300Z,28.57
2018-02-24T03:29:28.712Z,22.50
2018-02-24T03:31:56.122Z,22.60
2018-02-24T03:34:23.551Z,30.20
2018-02-24T03:36:51.522Z,21.60
2018-02-24T03:39:18.927Z,22.33
2018-02-24T03:41:46.345Z,25.53
2018-02-24T03:44:13.773Z,28.10
2018-02-24T03:46:41.176Z,24.60
2018-02-24T03:49:08.607Z,27.13
2018-02-24T03:51:36.014Z,27.83
2018-02-24T03:54:03.416Z,25.40
2018-02-24T03:56:30.846Z,30.75
2018-02-24T03:58:58.252Z,25.60
2018-02-24T04:01:25.674Z,27.20
2018-02-24T04:03:53.170Z,22.60
2018-02-24T04:06:20.584Z,30.33
2018-02-24T04:08:47.998Z,24.07
2018-02-24T04:11:15.418Z,30.43
2018-02-24T04:13:42.825Z,26.10
2018-02-24T04:16:10.253Z,21.33
2018-02-24T04:18:37.670Z,28.70
2018-02-24T04:21:05.088Z,27.90
2018-02-24T04:23:32.500Z,25.33
2018-02-24T04:25:59.920Z,33.00
2018-02-24T04:28:27.320Z,31.70
2018-02-24T04:30:54.744Z,33.13
2018-02-24T04:33:22.150Z,35.07
2018-02-24T04:35:49.573Z,33.20
2018-02-24T04:38:16.980Z,30.20
2018-02-24T04:40:44.397Z,26.67
2018-02-24T04:43:11.821Z,28.80
2018-02-24T04:45:39.236Z,30.17
2018-02-24T04:48:06.665Z,33.67
2018-02-24T04:50:34.086Z,29.47
2018-02-24T04:53:01.499Z,32.83
2018-02-24T04:55:28.936Z,28.17
2018-02-24T04:57:56.345Z,37.45
2018-02-24T05:00:24.707Z,26.10
2018-02-24T05:02:52.118Z,31.60
2018-02-24T05:05:19.538Z,30.08
2018-02-24T05:07:46.951Z,34.13
2018-02-24T05:10:14.390Z,24.17
2018-02-24T05:12:41.793Z,30.80
2018-02-24T05:15:09.212Z,28.17
2018-02-24T05:17:36.632Z,31.33
2018-02-24T05:20:04.045Z,24.05
2018-02-24T05:22:31.459Z,34.00
2018-02-24T05:24:58.874Z,32.00
2018-02-24T05:27:26.284Z,31.67
2018-02-24T05:29:53.705Z,30.67
2018-02-24T05:32:21.116Z,27.67
2018-02-24T05:34:48.525Z,33.28
2018-02-24T05:37:15.946Z,35.87
2018-02-24T05:42:17.149Z,36.57
2018-02-24T05:44:44.553Z,35.60
2018-02-24T05:47:11.978Z,36.77
2018-02-24T05:49:39.389Z,34.60
2018-02-24T05:52:06.808Z,29.17
2018-02-24T05:54:34.225Z,33.90
2018-02-24T05:57:01.638Z,27.97
2018-02-24T05:59:29.048Z,34.90
2018-02-24T06:01:56.469Z,31.80
2018-02-24T06:04:23.889Z,30.47
2018-02-24T06:06:51.313Z,27.92
2018-02-24T06:09:18.715Z,32.63
2018-02-24T06:11:46.141Z,30.97
2018-02-24T06:14:13.553Z,31.85
2018-02-24T06:16:40.979Z,33.13
2018-02-24T06:19:08.392Z,33.30
2018-02-24T06:21:35.816Z,34.38
2018-02-24T06:24:03.220Z,31.47
2018-02-24T06:26:30.646Z,34.10
2018-02-24T06:28:58.065Z,33.10
2018-02-24T06:31:25.485Z,29.50
2018-02-24T06:33:52.906Z,31.23
2018-02-24T06:36:20.323Z,35.13
2018-02-24T06:38:47.732Z,29.13
2018-02-24T06:41:15.145Z,32.17
2018-02-24T06:43:42.570Z,33.08
2018-02-24T06:46:09.991Z,29.50
2018-02-24T06:48:37.402Z,29.90
2018-02-24T06:51:04.821Z,32.33
2018-02-24T06:56:06.128Z,26.07
2018-02-24T06:58:33.548Z,33.97
2018-02-24T07:01:00.973Z,24.73
2018-02-24T07:03:28.386Z,36.13
2018-02-24T07:05:55.801Z,36.33
2018-02-24T07:08:23.228Z,28.87
2018-02-24T07:10:50.642Z,29.17
2018-02-24T07:13:18.061Z,31.03
2018-02-24T07:15:45.474Z,31.35
2018-02-24T07:18:12.888Z,30.03
2018-02-24T07:20:40.297Z,37.67
2018-02-24T07:23:07.722Z,25.27
2018-02-24T07:25:35.129Z,27.40
2018-02-24T07:28:02.537Z,39.27
2018-02-24T07:30:29.963Z,29.00
2018-02-24T07:32:57.382Z,33.70
2018-02-24T07:35:24.792Z,28.23
2018-02-24T07:37:52.209Z,35.47
2018-02-24T07:40:19.622Z,32.67
2018-02-24T07:42:47.036Z,30.33
2018-02-24T07:45:14.449Z,26.40
2018-02-24T07:47:41.882Z,28.23
2018-02-24T07:50:09.288Z,30.77
2018-02-24T07:52:36.713Z,28.60
2018-02-24T07:55:04.124Z,24.42
2018-02-24T07:57:31.542Z,29.67
2018-02-24T07:59:58.976Z,32.63
2018-02-24T08:02:26.404Z,27.87
2018-02-24T08:04:53.826Z,32.37
2018-02-24T08:07:21.241Z,25.13
2018-02-24T08:09:48.655Z,27.10
2018-02-24T08:12:16.065Z,32.73
2018-02-24T08:14:43.479Z,35.55
2018-02-24T08:17:10.897Z,26.20
2018-02-24T08:19:38.310Z,30.63
2018-02-24T08:22:05.738Z,27.35
2018-02-24T08:24:33.137Z,35.00
2018-02-24T08:27:00.984Z,28.65
2018-02-24T08:29:28.397Z,29.07
2018-02-24T08:31:55.841Z,29.67
2018-02-24T08:34:23.261Z,28.27
2018-02-24T08:36:50.678Z,26.90
2018-02-24T08:39:18.099Z,30.97
2018-02-24T08:41:45.513Z,23.95
2018-02-24T08:44:12.931Z,27.60
2018-02-24T08:46:40.342Z,29.87
2018-02-24T08:49:07.760Z,27.90
2018-02-24T08:51:35.185Z,24.93
2018-02-24T08:54:02.616Z,23.20
2018-02-24T08:56:30.027Z,28.17
2018-02-24T08:58:57.451Z,24.70
2018-02-24T09:01:24.871Z,24.25
2018-02-24T09:03:52.290Z,25.63
2018-02-24T09:06:19.695Z,24.93
2018-02-24T09:08:47.119Z,29.15
2018-02-24T09:11:14.540Z,23.47
2018-02-24T09:13:41.955Z,24.03
2018-02-24T09:16:09.369Z,19.37
2018-02-24T09:18:37.050Z,20.93
2018-02-24T09:21:04.469Z,23.57
2018-02-24T09:23:32.933Z,28.42
2018-02-24T09:26:00.341Z,22.77
2018-02-24T09:28:27.757Z,25.87
2018-02-24T09:30:55.173Z,26.43
2018-02-24T09:33:22.599Z,25.00
2018-02-24T09:35:50.009Z,22.03
2018-02-24T09:38:17.429Z,20.90
2018-02-24T09:40:44.842Z,24.27
2018-02-24T09:43:12.258Z,18.93
2018-02-24T09:45:39.669Z,21.10
2018-02-24T09:48:07.088Z,25.43
2018-02-24T09:50:34.510Z,21.10
2018-02-24T09:53:01.917Z,22.40
2018-02-24T09:55:29.316Z,19.40
2018-02-24T09:57:56.747Z,17.70
2018-02-24T10:00:24.148Z,21.87
2018-02-24T10:02:51.564Z,21.03
2018-02-24T10:05:18.968Z,18.43
2018-02-24T10:07:46.392Z,21.53
2018-02-24T10:10:13.793Z,19.27
2018-02-24T10:12:41.197Z,18.10
2018-02-24T10:15:08.618Z,18.90
2018-02-24T10:17:36.022Z,19.33
2018-02-24T10:20:03.440Z,21.40
2018-02-24T10:22:30.844Z,22.70
2018-02-24T10:24:58.315Z,25.00
2018-02-24T10:27:25.681Z,19.13
2018-02-24T10:29:53.102Z,19.23
2018-02-24T10:32:20.506Z,19.20
2018-02-24T10:34:47.928Z,18.70
2018-02-24T10:37:15.350Z,18.80
2018-02-24T10:39:42.765Z,17.23
2018-02-24T10:42:10.174Z,20.83
2018-02-24T10:44:37.590Z,16.43
2018-02-24T10:47:05.004Z,17.53
2018-02-24T10:49:32.409Z,20.30
2018-02-24T10:51:59.816Z,21.67
2018-02-24T10:54:27.238Z,16.73
2018-02-24T10:56:54.636Z,16.03
2018-02-24T10:59:22.061Z,18.07
2018-02-24T11:01:49.469Z,18.50
2018-02-24T11:04:16.888Z,17.00
2018-02-24T11:06:44.299Z,17.70
2018-02-24T11:09:11.713Z,14.03
2018-02-24T11:11:39.121Z,16.50
2018-02-24T11:14:07.393Z,19.48
2018-02-24T11:16:34.797Z,17.10
2018-02-24T11:19:02.218Z,16.40
2018-02-24T11:21:29.616Z,16.50
2018-02-24T11:23:57.033Z,13.83
2018-02-24T11:26:24.433Z,18.30
2018-02-24T11:28:51.859Z,11.43
2018-02-24T11:31:19.293Z,16.03
2018-02-24T11:33:46.697Z,15.57
2018-02-24T11:36:14.095Z,16.98
2018-02-24T11:38:41.502Z,12.13
2018-02-24T11:41:08.914Z,14.60
2018-02-24T11:43:36.335Z,13.62
2018-02-24T11:46:03.743Z,14.97
2018-02-24T11:48:31.152Z,17.17
2018-02-24T11:50:58.571Z,14.10
2018-02-24T11:53:25.969Z,16.27
2018-02-24T11:55:53.385Z,13.60
2018-02-24T11:58:20.793Z,15.15
2018-02-24T12:00:48.205Z,14.27
2018-02-24T12:03:15.614Z,13.43
2018-02-24T12:05:43.037Z,10.87
2018-02-24T12:08:10.432Z,16.20
2018-02-24T12:10:37.848Z,13.93
2018-02-24T12:13:05.261Z,12.33
2018-02-24T12:15:32.668Z,14.00
2018-02-24T12:18:00.091Z,15.70
2018-02-24T12:20:27.502Z,14.30
2018-02-24T12:22:54.906Z,13.02
2018-02-24T12:25:22.328Z,14.83
2018-02-24T12:27:49.742Z,14.50
2018-02-24T12:30:17.153Z,12.57
2018-02-24T12:32:44.558Z,14.13
2018-02-24T12:35:11.975Z,13.83
2018-02-24T12:37:39.382Z,16.97
2018-02-24T12:40:06.805Z,11.87
2018-02-24T12:42:34.205Z,13.20
2018-02-24T12:45:01.633Z,13.70
2018-02-24T12:47:29.033Z,11.60
2018-02-24T12:49:56.661Z,11.33
2018-02-24T12:52:23.862Z,13.43
2018-02-24T12:54:51.282Z,11.95
2018-02-24T12:57:18.689Z,11.73
2018-02-24T12:59:46.117Z,9.50
2018-02-24T13:02:13.563Z,13.23
2018-02-24T13:04:41.755Z,14.40
2018-02-24T13:07:09.154Z,11.50
2018-02-24T13:09:36.569Z,12.07
2018-02-24T13:12:03.976Z,11.70
2018-02-24T13:14:31.386Z,10.90
2018-02-24T13:16:58.880Z,11.50
2018-02-24T13:19:26.285Z,10.43
2018-02-24T13:21:53.958Z,9.60
2018-02-24T13:24:21.348Z,9.80
2018-02-24T13:26:48.756Z,13.50
2018-02-24T13:29:16.166Z,13.60
2018-02-24T13:31:43.577Z,14.20
2018-02-24T13:34:10.986Z,13.30
2018-02-24T13:36:38.634Z,12.90
2018-02-24T13:39:06.041Z,11.30
2018-02-24T13:41:33.456Z,10.27
2018-02-24T13:44:00.860Z,11.20
2018-02-24T13:46:28.279Z,13.23
2018-02-24T13:48:55.677Z,12.77
2018-02-24T13:51:23.100Z,13.53
2018-02-24T13:53:50.501Z,13.03
2018-02-24T13:56:17.918Z,13.10
2018-02-24T13:58:45.313Z,11.27
2018-02-24T14:01:12.731Z,13.47
2018-02-24T14:03:40.141Z,11.67
2018-02-24T14:06:07.555Z,11.50
2018-02-24T14:08:34.954Z,10.20
2018-02-24T14:11:02.373Z,14.00
2018-02-24T14:13:29.785Z,13.90
2018-02-24T14:15:57.197Z,15.57
2018-02-24T14:18:24.600Z,11.10
2018-02-24T14:20:52.010Z,13.70
2018-02-24T14:23:19.419Z,13.10
2018-02-24T14:25:46.833Z,7.73
2018-02-24T14:28:15.207Z,11.88
2018-02-24T14:30:42.629Z,10.73
2018-02-24T14:33:10.028Z,12.73
2018-02-24T14:35:37.442Z,9.90
2018-02-24T14:38:04.836Z,9.37
2018-02-24T14:40:32.273Z,11.67
2018-02-24T14:42:59.664Z,9.23
2018-02-24T14:45:27.069Z,8.57
2018-02-24T14:47:54.473Z,8.60
2018-02-24T14:50:21.882Z,6.75
2018-02-24T14:52:49.292Z,10.10
2018-02-24T14:55:16.701Z,9.40
2018-02-24T14:57:44.121Z,9.37
2018-02-24T15:00:11.521Z,9.57
2018-02-24T15:02:38.944Z,8.90
2018-02-24T15:05:06.339Z,7.00
2018-02-24T15:07:33.764Z,8.77
2018-02-24T15:10:01.160Z,8.60
2018-02-24T15:12:28.568Z,6.80
2018-02-24T15:14:55.973Z,8.50
2018-02-24T15:17:23.392Z,7.23
2018-02-24T15:19:50.797Z,7.40
2018-02-24T15:22:18.219Z,8.17
2018-02-24T15:24:45.609Z,5.32
2018-02-24T15:27:13.022Z,7.80
2018-02-24T15:29:40.412Z,5.87
2018-02-24T15:32:07.835Z,6.80
2018-02-24T15:34:35.228Z,7.70
2018-02-24T15:37:02.666Z,8.03
2018-02-24T15:39:30.058Z,7.93
2018-02-24T15:41:57.470Z,9.52
2018-02-24T15:44:24.869Z,7.80
2018-02-24T15:46:52.293Z,9.03
2018-02-24T15:49:19.690Z,8.13
2018-02-24T15:51:47.106Z,8.20
2018-02-24T15:54:14.509Z,7.10
2018-02-24T15:56:41.921Z,8.03
2018-02-24T15:59:09.329Z,8.70
2018-02-24T16:01:36.741Z,9.60
2018-02-24T16:04:04.155Z,6.63
2018-02-24T16:06:31.564Z,9.15
2018-02-24T16:08:59.006Z,9.67
2018-02-24T16:11:26.416Z,8.67
2018-02-24T16:13:53.820Z,9.37
2018-02-24T16:16:21.232Z,8.07
2018-02-24T16:18:48.633Z,7.83
2018-02-24T16:21:16.037Z,8.30
2018-02-24T16:23:43.445Z,8.52
2018-02-24T16:26:10.848Z,9.33
2018-02-24T16:28:38.257Z,9.23
2018-02-24T16:31:05.670Z,10.53
2018-02-24T16:33:33.076Z,9.07
2018-02-24T16:36:00.489Z,8.20
2018-02-24T16:38:27.899Z,9.60
2018-02-24T16:40:55.298Z,9.63
2018-02-24T16:43:22.705Z,7.20
2018-02-24T16:45:50.117Z,8.93
2018-02-24T16:48:17.522Z,6.73
2018-02-24T16:50:44.923Z,8.40
2018-02-24T16:53:12.338Z,7.70
2018-02-24T16:55:39.735Z,7.47
2018-02-24T16:58:07.139Z,6.20
2018-02-24T17:00:34.536Z,6.20
2018-02-24T17:03:01.941Z,5.60
2018-02-24T17:05:29.340Z,4.40
2018-02-24T17:07:56.749Z,3.03
2018-02-24T17:10:24.149Z,3.20
2018-02-24T17:12:51.537Z,4.25
2018-02-24T17:15:18.935Z,2.90
2018-02-24T17:17:46.343Z,3.70
2018-02-24T17:20:13.783Z,2.85
2018-02-24T17:22:41.160Z,4.37
2018-02-24T17:25:08.605Z,3.07
2018-02-24T17:27:35.973Z,3.62
2018-02-24T17:30:03.365Z,3.87
2018-02-24T17:32:31.214Z,2.90
2018-02-24T17:34:58.588Z,5.40
2018-02-24T17:37:25.994Z,4.50
2018-02-24T17:39:53.417Z,3.50
2018-02-24T17:42:20.830Z,4.40
2018-02-24T17:44:48.221Z,4.33
2018-02-24T17:47:16.209Z,3.57
2018-02-24T17:49:43.617Z,4.57
2018-02-24T17:52:11.005Z,3.70
2018-02-24T17:54:38.416Z,5.70
2018-02-24T17:57:05.813Z,5.00
2018-02-24T17:59:33.571Z,6.97
2018-02-24T18:02:00.965Z,5.30
2018-02-24T18:04:28.364Z,4.50
2018-02-24T18:06:55.752Z,4.87
2018-02-24T18:09:23.157Z,4.17
2018-02-24T18:11:50.554Z,4.30
2018-02-24T18:14:17.948Z,4.63
2018-02-24T18:16:45.341Z,5.73
2018-02-24T18:19:12.734Z,6.23
2018-02-24T18:21:40.132Z,3.83
2018-02-24T18:24:07.545Z,6.10
2018-02-24T18:26:34.945Z,5.10
2018-02-24T18:29:02.357Z,4.83
2018-02-24T18:31:30.075Z,5.18
2018-02-24T18:33:57.476Z,5.23
2018-02-24T18:36:24.941Z,5.57
2018-02-24T18:38:52.377Z,6.27
2018-02-24T18:41:19.745Z,6.63
2018-02-24T18:43:47.148Z,6.33
2018-02-24T18:46:14.546Z,5.73
2018-02-24T18:48:41.944Z,8.18
2018-02-24T18:51:09.341Z,5.75
2018-02-24T18:53:36.736Z,7.50
2018-02-24T18:56:04.133Z,6.63
2018-02-24T18:58:31.541Z,7.50
2018-02-24T19:00:58.991Z,5.67
2018-02-24T19:03:26.395Z,9.00
2018-02-24T19:05:53.793Z,7.00
2018-02-24T19:08:21.194Z,10.20
2018-02-24T19:10:48.611Z,7.20
2018-02-24T19:13:16.010Z,7.50
2018-02-24T19:15:43.427Z,9.93
2018-02-24T19:18:10.822Z,7.65
2018-02-24T19:20:38.238Z,6.83
2018-02-24T19:23:05.639Z,7.33
2018-02-24T19:25:33.058Z,7.82
2018-02-24T19:28:00.465Z,7.17
2018-02-24T19:30:27.869Z,7.50
2018-02-24T19:32:55.271Z,9.82
2018-02-24T19:35:22.672Z,8.40
2018-02-24T19:37:50.074Z,6.60
2018-02-24T19:40:17.476Z,9.43
2018-02-24T19:42:44.875Z,8.73
2018-02-24T19:45:12.305Z,8.37
2018-02-24T19:47:39.688Z,8.02
2018-02-24T19:50:07.106Z,7.77
2018-02-24T19:52:34.518Z,9.40
2018-02-24T19:55:01.916Z,8.32
2018-02-24T19:57:29.317Z,8.13
2018-02-24T19:59:57.297Z,9.25
2018-02-24T20:02:24.706Z,7.60
2018-02-24T20:04:52.114Z,7.73
2018-02-24T20:07:19.513Z,5.97
2018-02-24T20:09:46.920Z,7.17
2018-02-24T20:12:14.321Z,7.20
2018-02-24T20:14:41.708Z,7.90
2018-02-24T20:17:09.125Z,7.10
2018-02-24T20:19:36.530Z,8.17
2018-02-24T20:22:03.946Z,8.20
2018-02-24T20:24:31.341Z,9.20
2018-02-24T20:26:58.777Z,8.87
2018-02-24T20:29:26.162Z,8.90
2018-02-24T20:31:53.577Z,9.30
2018-02-24T20:34:20.982Z,9.90
2018-02-24T20:36:48.398Z,10.67
2018-02-24T20:39:15.807Z,10.13
2018-02-24T20:41:43.216Z,9.30
2018-02-24T20:44:10.618Z,9.47
2018-02-24T20:46:38.037Z,9.83
2018-02-24T20:49:05.430Z,9.37
2018-02-24T20:51:32.847Z,8.63
2018-02-24T20:54:00.244Z,9.53
2018-02-24T20:56:27.666Z,8.40
2018-02-24T20:58:55.062Z,6.07
2018-02-24T21:01:22.468Z,7.60
2018-02-24T21:03:49.869Z,8.07
2018-02-24T21:06:17.291Z,6.75
2018-02-24T21:08:44.693Z,10.03
2018-02-24T21:11:12.095Z,6.80
2018-02-24T21:13:39.489Z,8.10
2018-02-24T21:16:06.902Z,9.10
2018-02-24T21:18:34.301Z,8.90
2018-02-24T21:21:01.706Z,6.10
2018-02-24T21:23:29.930Z,6.95
2018-02-24T21:25:57.634Z,7.30
2018-02-24T21:28:25.032Z,8.00
2018-02-24T21:30:52.450Z,7.90
2018-02-24T21:33:19.850Z,8.33
2018-02-24T21:35:47.264Z,7.30
2018-02-24T21:38:14.658Z,8.33
2018-02-24T21:40:42.230Z,6.80
2018-02-24T21:43:09.637Z,9.67
2018-02-24T21:45:37.033Z,6.37
2018-02-24T21:48:04.497Z,6.87
2018-02-24T21:50:32.161Z,7.70
2018-02-24T21:53:00.461Z,6.80
2018-02-24T21:55:27.860Z,7.20
2018-02-24T21:57:55.265Z,7.50
2018-02-24T22:02:40.054Z,8.23
2018-02-24T22:05:07.449Z,5.73
2018-02-24T22:07:34.866Z,7.93
2018-02-24T22:10:02.264Z,7.22
2018-02-24T22:12:29.693Z,8.47
2018-02-24T22:14:57.097Z,6.87
2018-02-24T22:17:24.512Z,5.37
2018-02-24T22:19:51.911Z,6.53
2018-02-24T22:22:19.476Z,5.07
2018-02-24T22:24:46.872Z,5.80
2018-02-24T22:27:14.293Z,6.17
2018-02-24T22:29:41.706Z,6.93
2018-02-24T22:32:09.124Z,6.90
2018-02-24T22:34:36.533Z,6.47
2018-02-24T22:37:03.956Z,6.87
2018-02-24T22:39:31.365Z,5.78
2018-02-24T22:41:58.783Z,6.90
2018-02-24T22:44:26.214Z,5.70
2018-02-24T22:46:53.627Z,5.65
2018-02-24T22:49:21.042Z,5.13
2018-02-24T22:51:48.450Z,7.03
2018-02-24T22:54:15.858Z,8.05
2018-02-24T22:56:43.919Z,8.30
2018-02-24T22:59:11.328Z,6.87
2018-02-24T23:01:38.743Z,7.37
2018-02-24T23:04:06.143Z,6.00
2018-02-24T23:06:33.540Z,8.20
2018-02-24T23:09:00.951Z,7.20
2018-02-24T23:11:28.349Z,5.50
2018-02-24T23:13:55.764Z,7.60
2018-02-24T23:16:23.214Z,6.70
2018-02-24T23:18:50.598Z,7.53
2018-02-24T23:21:17.993Z,5.50
2018-02-24T23:23:45.405Z,6.80
2018-02-24T23:26:12.812Z,7.77
2018-02-24T23:28:40.227Z,6.60
2018-02-24T23:31:07.682Z,7.23
2018-02-24T23:33:35.038Z,6.60
2018-02-24T23:36:02.432Z,7.43
2018-02-24T23:38:29.863Z,5.07
2018-02-24T23:40:57.265Z,6.90
2018-02-24T23:43:25.619Z,6.95
2018-02-24T23:45:53.018Z,5.63
2018-02-24T23:48:20.445Z,6.50
2018-02-24T23:50:47.839Z,6.80
2018-02-24T23:53:15.244Z,7.30
2018-02-24T23:55:42.655Z,7.03
2018-02-24T23:58:10.052Z,7.25
